sensor_id;sensor_type;location;lat;lon;timestamp;P1;P2;P0
62778;PMS7003;48821;48.796;2.396;2023-04-12T00:00:32;2.67;2.67;2.00
62778;PMS7003;48821;48.796;2.396;2023-04-12T00:01:43;2.33;2.33;2.00
62778;PMS7003;48821;48.796;2.396;2023-04-12T00:02:54;4.00;4.00;2.33
62778;PMS7003;48821;48.796;2.396;2023-04-12T00:04:07;4.00;3.33;3.00
62778;PMS7003;48821;48.796;2.396;2023-04-12T00:05:21;1.33;1.33;1.17
62778;PMS7003;48821;48.796;2.396;2023-04-12T00:06:38;6.83;3.00;2.50
62778;PMS7003;48821;48.796;2.396;2023-04-12T00:07:49;3.67;3.33;2.67
62778;PMS7003;48821;48.796;2.396;2023-04-12T00:09:06;4.17;2.67;2.00
62778;PMS7003;48821;48.796;2.396;2023-04-12T00:10:20;5.17;3.00;2.00
62778;PMS7003;48821;48.796;2.396;2023-04-12T00:11:34;4.83;2.17;1.33
62778;PMS7003;48821;48.796;2.396;2023-04-12T00:12:47;4.83;3.50;2.33
62778;PMS7003;48821;48.796;2.396;2023-04-12T00:14:01;4.50;4.17;3.17
62778;PMS7003;48821;48.796;2.396;2023-04-12T00:15:14;4.33;2.67;2.00
62778;PMS7003;48821;48.796;2.396;2023-04-12T00:16:27;3.00;2.50;2.33
62778;PMS7003;48821;48.796;2.396;2023-04-12T00:17:40;6.00;2.83;1.50
62778;PMS7003;48821;48.796;2.396;2023-04-12T00:18:54;6.67;3.50;2.00
62778;PMS7003;48821;48.796;2.396;2023-04-12T00:20:07;3.50;3.50;2.17
62778;PMS7003;48821;48.796;2.396;2023-04-12T00:21:24;2.50;2.33;1.67
62778;PMS7003;48821;48.796;2.396;2023-04-12T00:22:40;4.17;2.50;2.00
62778;PMS7003;48821;48.796;2.396;2023-04-12T00:23:51;5.00;4.00;2.33
62778;PMS7003;48821;48.796;2.396;2023-04-12T00:25:02;4.00;2.00;1.67
62778;PMS7003;48821;48.796;2.396;2023-04-12T00:26:13;6.33;4.00;2.00
62778;PMS7003;48821;48.796;2.396;2023-04-12T00:27:24;4.00;4.00;3.00
62778;PMS7003;48821;48.796;2.396;2023-04-12T00:28:35;8.00;3.00;2.00
62778;PMS7003;48821;48.796;2.396;2023-04-12T00:29:48;3.60;2.00;2.00
62778;PMS7003;48821;48.796;2.396;2023-04-12T00:31:01;3.33;2.33;1.83
62778;PMS7003;48821;48.796;2.396;2023-04-12T00:32:14;6.00;3.33;2.67
62778;PMS7003;48821;48.796;2.396;2023-04-12T00:33:27;2.00;1.83;1.33
62778;PMS7003;48821;48.796;2.396;2023-04-12T00:34:40;4.33;3.83;3.00
62778;PMS7003;48821;48.796;2.396;2023-04-12T00:35:54;2.83;2.67;2.17
62778;PMS7003;48821;48.796;2.396;2023-04-12T00:37:04;3.00;3.00;2.00
62778;PMS7003;48821;48.796;2.396;2023-04-12T00:38:15;4.00;4.00;3.00
62778;PMS7003;48821;48.796;2.396;2023-04-12T00:39:29;5.83;3.67;2.33
62778;PMS7003;48821;48.796;2.396;2023-04-12T00:40:42;3.67;3.00;2.00
62778;PMS7003;48821;48.796;2.396;2023-04-12T00:41:56;2.33;2.33;2.00
62778;PMS7003;48821;48.796;2.396;2023-04-12T00:43:09;4.17;4.17;2.83
62778;PMS7003;48821;48.796;2.396;2023-04-12T00:44:27;4.33;3.50;2.00
62778;PMS7003;48821;48.796;2.396;2023-04-12T00:45:40;5.00;2.50;2.00
62778;PMS7003;48821;48.796;2.396;2023-04-12T00:46:54;4.17;2.17;2.00
62778;PMS7003;48821;48.796;2.396;2023-04-12T00:48:04;8.00;3.00;2.67
62778;PMS7003;48821;48.796;2.396;2023-04-12T00:49:16;4.00;3.25;2.00
62778;PMS7003;48821;48.796;2.396;2023-04-12T00:50:29;4.33;2.33;2.00
62778;PMS7003;48821;48.796;2.396;2023-04-12T00:51:42;3.00;3.00;2.00
62778;PMS7003;48821;48.796;2.396;2023-04-12T00:52:56;7.50;3.83;2.00
62778;PMS7003;48821;48.796;2.396;2023-04-12T00:54:10;2.50;2.00;1.83
62778;PMS7003;48821;48.796;2.396;2023-04-12T00:55:22;7.00;3.00;3.00
62778;PMS7003;48821;48.796;2.396;2023-04-12T00:56:35;6.00;3.00;2.00
62778;PMS7003;48821;48.796;2.396;2023-04-12T00:57:50;3.17;3.00;2.00
62778;PMS7003;48821;48.796;2.396;2023-04-12T00:59:03;5.00;3.83;3.00
62778;PMS7003;48821;48.796;2.396;2023-04-12T01:00:17;6.50;2.17;1.83
62778;PMS7003;48821;48.796;2.396;2023-04-12T01:01:30;3.83;3.50;3.00
62778;PMS7003;48821;48.796;2.396;2023-04-12T01:02:44;4.33;2.17;2.00
62778;PMS7003;48821;48.796;2.396;2023-04-12T01:03:58;2.17;2.17;2.00
62778;PMS7003;48821;48.796;2.396;2023-04-12T01:05:09;3.33;3.00;2.00
62778;PMS7003;48821;48.796;2.396;2023-04-12T01:09:51;4.67;2.83;2.33
62778;PMS7003;48821;48.796;2.396;2023-04-12T01:11:22;4.17;2.83;2.00
62778;PMS7003;48821;48.796;2.396;2023-04-12T01:14:20;2.33;1.67;1.17
62778;PMS7003;48821;48.796;2.396;2023-04-12T01:15:44;4.00;2.00;1.33
62778;PMS7003;48821;48.796;2.396;2023-04-12T01:17:05;2.67;1.83;1.67
62778;PMS7003;48821;48.796;2.396;2023-04-12T01:18:24;4.33;3.00;2.67
62778;PMS7003;48821;48.796;2.396;2023-04-12T01:19:46;5.00;2.50;1.83
62778;PMS7003;48821;48.796;2.396;2023-04-12T01:21:15;2.00;1.83;1.67
62778;PMS7003;48821;48.796;2.396;2023-04-12T01:25:55;2.33;2.33;1.67
62778;PMS7003;48821;48.796;2.396;2023-04-12T01:27:45;2.67;2.67;2.17
62778;PMS7003;48821;48.796;2.396;2023-04-12T01:29:03;3.50;3.00;2.00
62778;PMS7003;48821;48.796;2.396;2023-04-12T01:30:21;5.67;3.00;2.17
62778;PMS7003;48821;48.796;2.396;2023-04-12T01:31:40;3.00;2.00;1.00
62778;PMS7003;48821;48.796;2.396;2023-04-12T01:33:02;4.33;2.83;2.17
62778;PMS7003;48821;48.796;2.396;2023-04-12T01:34:19;3.67;3.33;2.00
62778;PMS7003;48821;48.796;2.396;2023-04-12T01:35:34;3.67;3.00;1.83
62778;PMS7003;48821;48.796;2.396;2023-04-12T01:36:46;3.33;2.33;2.00
62778;PMS7003;48821;48.796;2.396;2023-04-12T01:37:58;5.00;3.33;3.00
62778;PMS7003;48821;48.796;2.396;2023-04-12T01:39:12;3.00;2.00;1.00
62778;PMS7003;48821;48.796;2.396;2023-04-12T01:40:27;5.00;3.67;2.17
62778;PMS7003;48821;48.796;2.396;2023-04-12T01:41:41;3.83;2.33;1.17
62778;PMS7003;48821;48.796;2.396;2023-04-12T01:43:07;5.17;2.33;2.00
62778;PMS7003;48821;48.796;2.396;2023-04-12T01:44:20;2.67;2.67;2.00
62778;PMS7003;48821;48.796;2.396;2023-04-12T01:45:33;2.50;2.00;1.33
62778;PMS7003;48821;48.796;2.396;2023-04-12T01:46:47;2.50;1.50;1.00
62778;PMS7003;48821;48.796;2.396;2023-04-12T01:48:00;4.67;3.00;2.83
62778;PMS7003;48821;48.796;2.396;2023-04-12T01:49:16;2.50;2.00;2.00
62778;PMS7003;48821;48.796;2.396;2023-04-12T01:52:12;4.33;2.67;2.00
62778;PMS7003;48821;48.796;2.396;2023-04-12T01:53:41;6.67;3.83;2.00
62778;PMS7003;48821;48.796;2.396;2023-04-12T01:55:15;1.83;1.83;1.00
62778;PMS7003;48821;48.796;2.396;2023-04-12T01:56:30;2.83;2.67;2.00
62778;PMS7003;48821;48.796;2.396;2023-04-12T01:57:48;1.67;1.17;1.00
62778;PMS7003;48821;48.796;2.396;2023-04-12T01:59:02;9.17;3.67;2.00
62778;PMS7003;48821;48.796;2.396;2023-04-12T02:00:16;5.83;3.67;2.17
62778;PMS7003;48821;48.796;2.396;2023-04-12T02:01:28;3.33;2.67;2.00
62778;PMS7003;48821;48.796;2.396;2023-04-12T02:02:42;2.17;2.17;2.00
62778;PMS7003;48821;48.796;2.396;2023-04-12T02:03:57;4.67;4.00;2.00
62778;PMS7003;48821;48.796;2.396;2023-04-12T02:05:12;5.00;3.33;2.50
62778;PMS7003;48821;48.796;2.396;2023-04-12T02:06:25;3.33;2.00;1.33
62778;PMS7003;48821;48.796;2.396;2023-04-12T02:07:40;7.00;3.00;2.00
62778;PMS7003;48821;48.796;2.396;2023-04-12T02:09:00;2.50;2.00;1.00
62778;PMS7003;48821;48.796;2.396;2023-04-12T02:10:14;4.83;2.83;2.00
62778;PMS7003;48821;48.796;2.396;2023-04-12T02:11:28;3.67;3.00;1.50
62778;PMS7003;48821;48.796;2.396;2023-04-12T02:12:41;3.50;2.50;2.00
62778;PMS7003;48821;48.796;2.396;2023-04-12T02:13:54;3.33;2.00;1.83
62778;PMS7003;48821;48.796;2.396;2023-04-12T02:15:05;5.00;3.67;3.00
62778;PMS7003;48821;48.796;2.396;2023-04-12T02:16:19;4.00;4.00;3.17
62778;PMS7003;48821;48.796;2.396;2023-04-12T02:17:34;8.50;3.50;2.00
62778;PMS7003;48821;48.796;2.396;2023-04-12T02:18:49;4.83;2.67;1.67
62778;PMS7003;48821;48.796;2.396;2023-04-12T02:20:03;3.33;2.50;2.00
62778;PMS7003;48821;48.796;2.396;2023-04-12T02:21:21;3.00;2.00;1.33
62778;PMS7003;48821;48.796;2.396;2023-04-12T02:22:34;6.00;3.00;2.00
62778;PMS7003;48821;48.796;2.396;2023-04-12T02:23:47;3.33;3.33;2.67
62778;PMS7003;48821;48.796;2.396;2023-04-12T02:25:02;4.50;3.00;1.00
62778;PMS7003;48821;48.796;2.396;2023-04-12T02:26:17;3.67;3.00;2.67
62778;PMS7003;48821;48.796;2.396;2023-04-12T02:27:30;3.17;3.17;3.00
62778;PMS7003;48821;48.796;2.396;2023-04-12T02:28:43;2.83;2.50;1.83
62778;PMS7003;48821;48.796;2.396;2023-04-12T02:29:57;4.00;2.33;2.00
62778;PMS7003;48821;48.796;2.396;2023-04-12T02:31:11;4.00;4.00;2.83
62778;PMS7003;48821;48.796;2.396;2023-04-12T02:32:24;2.50;2.33;2.00
62778;PMS7003;48821;48.796;2.396;2023-04-12T02:33:38;4.00;3.00;1.83
62778;PMS7003;48821;48.796;2.396;2023-04-12T02:34:52;3.33;2.50;2.00
62778;PMS7003;48821;48.796;2.396;2023-04-12T02:36:03;4.00;3.00;2.33
62778;PMS7003;48821;48.796;2.396;2023-04-12T02:37:19;4.67;4.00;3.00
62778;PMS7003;48821;48.796;2.396;2023-04-12T02:38:36;5.33;3.50;2.17
62778;PMS7003;48821;48.796;2.396;2023-04-12T02:39:49;2.33;0.33;0.33
62778;PMS7003;48821;48.796;2.396;2023-04-12T02:41:02;5.67;4.00;3.00
62778;PMS7003;48821;48.796;2.396;2023-04-12T02:42:16;2.83;2.50;2.17
62778;PMS7003;48821;48.796;2.396;2023-04-12T02:43:29;2.33;2.33;1.67
62778;PMS7003;48821;48.796;2.396;2023-04-12T02:44:42;5.83;3.33;3.00
62778;PMS7003;48821;48.796;2.396;2023-04-12T02:45:59;4.67;3.00;2.00
62778;PMS7003;48821;48.796;2.396;2023-04-12T02:47:13;3.00;2.50;2.00
62778;PMS7003;48821;48.796;2.396;2023-04-12T02:48:26;3.67;2.17;1.00
62778;PMS7003;48821;48.796;2.396;2023-04-12T02:49:39;2.33;2.17;1.17
62778;PMS7003;48821;48.796;2.396;2023-04-12T02:50:52;3.50;2.00;2.00
62778;PMS7003;48821;48.796;2.396;2023-04-12T02:52:06;2.00;1.50;1.00
62778;PMS7003;48821;48.796;2.396;2023-04-12T02:53:19;5.83;2.33;1.67
62778;PMS7003;48821;48.796;2.396;2023-04-12T02:54:33;3.00;3.00;2.00
62778;PMS7003;48821;48.796;2.396;2023-04-12T02:55:46;4.00;3.00;2.33
62778;PMS7003;48821;48.796;2.396;2023-04-12T02:56:59;1.83;1.00;0.83
62778;PMS7003;48821;48.796;2.396;2023-04-12T02:58:13;3.17;2.50;2.33
62778;PMS7003;48821;48.796;2.396;2023-04-12T02:59:26;4.17;2.00;1.83
62778;PMS7003;48821;48.796;2.396;2023-04-12T03:00:40;2.50;2.33;2.00
62778;PMS7003;48821;48.796;2.396;2023-04-12T03:01:55;2.33;2.00;1.00
62778;PMS7003;48821;48.796;2.396;2023-04-12T03:03:08;3.00;2.83;1.83
62778;PMS7003;48821;48.796;2.396;2023-04-12T03:04:21;3.00;3.00;2.50
62778;PMS7003;48821;48.796;2.396;2023-04-12T03:05:42;2.50;1.50;1.33
62778;PMS7003;48821;48.796;2.396;2023-04-12T03:06:58;3.50;1.83;1.00
62778;PMS7003;48821;48.796;2.396;2023-04-12T03:08:09;3.00;2.00;2.00
62778;PMS7003;48821;48.796;2.396;2023-04-12T03:09:20;2.67;2.00;1.00
62778;PMS7003;48821;48.796;2.396;2023-04-12T03:10:33;4.17;2.00;1.83
62778;PMS7003;48821;48.796;2.396;2023-04-12T03:11:47;1.67;1.67;1.50
62778;PMS7003;48821;48.796;2.396;2023-04-12T03:13:00;2.83;2.00;2.00
62778;PMS7003;48821;48.796;2.396;2023-04-12T03:14:13;1.50;1.50;1.00
62778;PMS7003;48821;48.796;2.396;2023-04-12T03:15:26;3.00;1.83;1.17
62778;PMS7003;48821;48.796;2.396;2023-04-12T03:16:41;3.33;2.00;1.17
62778;PMS7003;48821;48.796;2.396;2023-04-12T03:17:55;2.83;2.00;1.17
62778;PMS7003;48821;48.796;2.396;2023-04-12T03:19:08;2.00;2.00;2.00
62778;PMS7003;48821;48.796;2.396;2023-04-12T03:20:21;2.33;1.00;1.00
62778;PMS7003;48821;48.796;2.396;2023-04-12T03:21:36;1.33;1.33;1.00
62778;PMS7003;48821;48.796;2.396;2023-04-12T03:22:47;3.67;2.00;2.00
62778;PMS7003;48821;48.796;2.396;2023-04-12T03:23:58;3.00;1.00;1.00
62778;PMS7003;48821;48.796;2.396;2023-04-12T03:25:11;2.83;2.83;2.00
62778;PMS7003;48821;48.796;2.396;2023-04-12T03:26:24;1.50;1.50;1.00
62778;PMS7003;48821;48.796;2.396;2023-04-12T03:27:38;1.17;1.17;1.00
62778;PMS7003;48821;48.796;2.396;2023-04-12T03:28:59;1.50;1.50;1.00
62778;PMS7003;48821;48.796;2.396;2023-04-12T03:30:13;1.83;1.83;1.00
62778;PMS7003;48821;48.796;2.396;2023-04-12T03:31:27;1.17;1.17;1.17
62778;PMS7003;48821;48.796;2.396;2023-04-12T03:32:37;4.67;2.00;2.00
62778;PMS7003;48821;48.796;2.396;2023-04-12T03:33:51;4.00;1.33;1.17
62778;PMS7003;48821;48.796;2.396;2023-04-12T03:35:05;1.33;1.33;0.83
62778;PMS7003;48821;48.796;2.396;2023-04-12T03:36:22;2.00;2.00;1.67
62778;PMS7003;48821;48.796;2.396;2023-04-12T03:37:35;2.50;1.67;1.67
62778;PMS7003;48821;48.796;2.396;2023-04-12T03:38:49;1.00;1.00;1.00
62778;PMS7003;48821;48.796;2.396;2023-04-12T03:40:02;1.00;1.00;1.00
62778;PMS7003;48821;48.796;2.396;2023-04-12T03:41:16;1.00;1.00;0.83
62778;PMS7003;48821;48.796;2.396;2023-04-12T03:42:29;2.50;2.00;1.00
62778;PMS7003;48821;48.796;2.396;2023-04-12T03:43:42;4.33;1.33;1.00
62778;PMS7003;48821;48.796;2.396;2023-04-12T03:44:55;2.67;0.83;0.50
62778;PMS7003;48821;48.796;2.396;2023-04-12T03:46:08;1.17;0.00;0.00
62778;PMS7003;48821;48.796;2.396;2023-04-12T03:47:22;2.67;0.67;0.67
62778;PMS7003;48821;48.796;2.396;2023-04-12T03:48:35;1.50;1.00;1.00
62778;PMS7003;48821;48.796;2.396;2023-04-12T03:49:49;0.50;0.50;0.33
62778;PMS7003;48821;48.796;2.396;2023-04-12T03:51:02;5.00;2.00;2.00
62778;PMS7003;48821;48.796;2.396;2023-04-12T03:52:20;1.00;1.00;1.00
62778;PMS7003;48821;48.796;2.396;2023-04-12T03:53:33;0.33;0.00;0.00
62778;PMS7003;48821;48.796;2.396;2023-04-12T03:54:46;0.17;0.17;0.00
62778;PMS7003;48821;48.796;2.396;2023-04-12T03:55:59;0.17;0.17;0.00
62778;PMS7003;48821;48.796;2.396;2023-04-12T03:57:13;0.00;0.00;0.00
62778;PMS7003;48821;48.796;2.396;2023-04-12T03:58:26;0.00;0.00;0.00
62778;PMS7003;48821;48.796;2.396;2023-04-12T03:59:39;0.00;0.00;0.00
62778;PMS7003;48821;48.796;2.396;2023-04-12T04:00:52;0.00;0.00;0.00
62778;PMS7003;48821;48.796;2.396;2023-04-12T04:02:05;0.00;0.00;0.00
62778;PMS7003;48821;48.796;2.396;2023-04-12T04:03:19;0.00;0.00;0.00
62778;PMS7003;48821;48.796;2.396;2023-04-12T04:04:34;0.00;0.00;0.00
62778;PMS7003;48821;48.796;2.396;2023-04-12T04:05:49;1.00;0.00;0.00
62778;PMS7003;48821;48.796;2.396;2023-04-12T04:07:02;0.00;0.00;0.00
62778;PMS7003;48821;48.796;2.396;2023-04-12T04:08:15;0.00;0.00;0.00
62778;PMS7003;48821;48.796;2.396;2023-04-12T04:09:28;1.00;0.00;0.00
62778;PMS7003;48821;48.796;2.396;2023-04-12T04:10:42;0.33;0.00;0.00
62778;PMS7003;48821;48.796;2.396;2023-04-12T04:11:55;0.00;0.00;0.00
62778;PMS7003;48821;48.796;2.396;2023-04-12T04:13:08;0.00;0.00;0.00
62778;PMS7003;48821;48.796;2.396;2023-04-12T04:14:21;0.00;0.00;0.00
62778;PMS7003;48821;48.796;2.396;2023-04-12T04:15:34;0.00;0.00;0.00
62778;PMS7003;48821;48.796;2.396;2023-04-12T04:16:48;0.00;0.00;0.00
62778;PMS7003;48821;48.796;2.396;2023-04-12T04:18:01;0.00;0.00;0.00
62778;PMS7003;48821;48.796;2.396;2023-04-12T04:19:14;0.00;0.00;0.00
62778;PMS7003;48821;48.796;2.396;2023-04-12T04:20:27;0.00;0.00;0.00
62778;PMS7003;48821;48.796;2.396;2023-04-12T04:21:40;0.00;0.00;0.00
62778;PMS7003;48821;48.796;2.396;2023-04-12T04:22:54;0.00;0.00;0.00
62778;PMS7003;48821;48.796;2.396;2023-04-12T04:24:08;0.00;0.00;0.00
62778;PMS7003;48821;48.796;2.396;2023-04-12T04:25:23;0.00;0.00;0.00
62778;PMS7003;48821;48.796;2.396;2023-04-12T04:26:41;0.00;0.00;0.00
62778;PMS7003;48821;48.796;2.396;2023-04-12T04:27:55;0.00;0.00;0.00
62778;PMS7003;48821;48.796;2.396;2023-04-12T04:29:09;0.00;0.00;0.00
62778;PMS7003;48821;48.796;2.396;2023-04-12T04:30:23;0.00;0.00;0.00
62778;PMS7003;48821;48.796;2.396;2023-04-12T04:31:38;0.00;0.00;0.00
62778;PMS7003;48821;48.796;2.396;2023-04-12T04:32:51;0.50;0.00;0.00
62778;PMS7003;48821;48.796;2.396;2023-04-12T04:34:04;0.00;0.00;0.00
62778;PMS7003;48821;48.796;2.396;2023-04-12T04:35:18;0.00;0.00;0.00
62778;PMS7003;48821;48.796;2.396;2023-04-12T04:36:32;0.00;0.00;0.00
62778;PMS7003;48821;48.796;2.396;2023-04-12T04:37:47;0.00;0.00;0.00
62778;PMS7003;48821;48.796;2.396;2023-04-12T04:39:00;0.00;0.00;0.00
62778;PMS7003;48821;48.796;2.396;2023-04-12T04:40:14;0.00;0.00;0.00
62778;PMS7003;48821;48.796;2.396;2023-04-12T04:41:28;0.00;0.00;0.00
62778;PMS7003;48821;48.796;2.396;2023-04-12T04:42:46;0.17;0.00;0.00
62778;PMS7003;48821;48.796;2.396;2023-04-12T04:44:06;0.00;0.00;0.00
62778;PMS7003;48821;48.796;2.396;2023-04-12T04:45:21;0.00;0.00;0.00
62778;PMS7003;48821;48.796;2.396;2023-04-12T04:46:38;0.00;0.00;0.00
62778;PMS7003;48821;48.796;2.396;2023-04-12T04:47:51;0.00;0.00;0.00
62778;PMS7003;48821;48.796;2.396;2023-04-12T04:49:08;0.00;0.00;0.00
62778;PMS7003;48821;48.796;2.396;2023-04-12T04:50:21;0.00;0.00;0.00
62778;PMS7003;48821;48.796;2.396;2023-04-12T04:51:36;0.00;0.00;0.00
62778;PMS7003;48821;48.796;2.396;2023-04-12T04:52:49;0.00;0.00;0.00
62778;PMS7003;48821;48.796;2.396;2023-04-12T04:54:03;0.00;0.00;0.00
62778;PMS7003;48821;48.796;2.396;2023-04-12T04:55:16;0.00;0.00;0.00
62778;PMS7003;48821;48.796;2.396;2023-04-12T04:56:30;0.00;0.00;0.00
62778;PMS7003;48821;48.796;2.396;2023-04-12T04:57:44;0.17;0.00;0.00
62778;PMS7003;48821;48.796;2.396;2023-04-12T04:58:57;0.00;0.00;0.00
62778;PMS7003;48821;48.796;2.396;2023-04-12T05:00:10;0.00;0.00;0.00
62778;PMS7003;48821;48.796;2.396;2023-04-12T05:01:28;0.00;0.00;0.00
62778;PMS7003;48821;48.796;2.396;2023-04-12T05:02:41;0.00;0.00;0.00
62778;PMS7003;48821;48.796;2.396;2023-04-12T05:03:54;0.00;0.00;0.00
62778;PMS7003;48821;48.796;2.396;2023-04-12T05:05:11;0.00;0.00;0.00
62778;PMS7003;48821;48.796;2.396;2023-04-12T05:06:25;0.00;0.00;0.00
62778;PMS7003;48821;48.796;2.396;2023-04-12T05:07:39;1.33;0.00;0.00
62778;PMS7003;48821;48.796;2.396;2023-04-12T05:08:52;0.00;0.00;0.00
62778;PMS7003;48821;48.796;2.396;2023-04-12T05:10:05;0.00;0.00;0.00
62778;PMS7003;48821;48.796;2.396;2023-04-12T05:11:19;0.00;0.00;0.00
62778;PMS7003;48821;48.796;2.396;2023-04-12T05:12:32;1.00;0.00;0.00
62778;PMS7003;48821;48.796;2.396;2023-04-12T05:13:46;0.00;0.00;0.00
62778;PMS7003;48821;48.796;2.396;2023-04-12T05:14:59;0.00;0.00;0.00
62778;PMS7003;48821;48.796;2.396;2023-04-12T05:16:12;1.00;0.00;0.00
62778;PMS7003;48821;48.796;2.396;2023-04-12T05:17:26;1.00;0.00;0.00
62778;PMS7003;48821;48.796;2.396;2023-04-12T05:18:39;2.33;1.67;0.17
62778;PMS7003;48821;48.796;2.396;2023-04-12T05:19:52;0.00;0.00;0.00
62778;PMS7003;48821;48.796;2.396;2023-04-12T05:21:06;1.83;1.00;0.00
62778;PMS7003;48821;48.796;2.396;2023-04-12T05:22:19;0.00;0.00;0.00
62778;PMS7003;48821;48.796;2.396;2023-04-12T05:23:34;0.00;0.00;0.00
62778;PMS7003;48821;48.796;2.396;2023-04-12T05:24:49;0.50;0.50;0.00
62778;PMS7003;48821;48.796;2.396;2023-04-12T05:26:02;0.33;0.00;0.00
62778;PMS7003;48821;48.796;2.396;2023-04-12T05:27:16;0.00;0.00;0.00
62778;PMS7003;48821;48.796;2.396;2023-04-12T05:28:30;0.00;0.00;0.00
62778;PMS7003;48821;48.796;2.396;2023-04-12T05:29:43;0.00;0.00;0.00
62778;PMS7003;48821;48.796;2.396;2023-04-12T05:30:57;0.00;0.00;0.00
62778;PMS7003;48821;48.796;2.396;2023-04-12T05:32:10;0.00;0.00;0.00
62778;PMS7003;48821;48.796;2.396;2023-04-12T05:33:23;0.00;0.00;0.00
62778;PMS7003;48821;48.796;2.396;2023-04-12T05:34:37;0.00;0.00;0.00
62778;PMS7003;48821;48.796;2.396;2023-04-12T05:35:50;0.00;0.00;0.00
62778;PMS7003;48821;48.796;2.396;2023-04-12T05:37:03;0.00;0.00;0.00
62778;PMS7003;48821;48.796;2.396;2023-04-12T05:38:17;0.00;0.00;0.00
62778;PMS7003;48821;48.796;2.396;2023-04-12T05:39:30;0.00;0.00;0.00
62778;PMS7003;48821;48.796;2.396;2023-04-12T05:40:43;1.00;1.00;1.00
62778;PMS7003;48821;48.796;2.396;2023-04-12T05:41:56;0.00;0.00;0.00
62778;PMS7003;48821;48.796;2.396;2023-04-12T05:43:09;0.00;0.00;0.00
62778;PMS7003;48821;48.796;2.396;2023-04-12T05:44:26;0.33;0.00;0.00
62778;PMS7003;48821;48.796;2.396;2023-04-12T05:45:39;1.17;0.00;0.00
62778;PMS7003;48821;48.796;2.396;2023-04-12T05:46:55;0.00;0.00;0.00
62778;PMS7003;48821;48.796;2.396;2023-04-12T05:48:08;0.00;0.00;0.00
62778;PMS7003;48821;48.796;2.396;2023-04-12T05:49:22;0.83;0.00;0.00
62778;PMS7003;48821;48.796;2.396;2023-04-12T05:50:35;1.00;1.00;1.00
62778;PMS7003;48821;48.796;2.396;2023-04-12T05:51:48;2.00;2.00;1.17
62778;PMS7003;48821;48.796;2.396;2023-04-12T05:53:01;2.33;1.17;1.00
62778;PMS7003;48821;48.796;2.396;2023-04-12T05:54:14;2.50;1.83;1.67
62778;PMS7003;48821;48.796;2.396;2023-04-12T05:55:30;1.00;1.00;1.00
62778;PMS7003;48821;48.796;2.396;2023-04-12T05:56:43;1.00;1.00;0.00
62778;PMS7003;48821;48.796;2.396;2023-04-12T05:57:56;0.00;0.00;0.00
62778;PMS7003;48821;48.796;2.396;2023-04-12T05:59:10;0.50;0.00;0.00
62778;PMS7003;48821;48.796;2.396;2023-04-12T06:00:24;0.00;0.00;0.00
62778;PMS7003;48821;48.796;2.396;2023-04-12T06:01:38;0.67;0.00;0.00
62778;PMS7003;48821;48.796;2.396;2023-04-12T06:02:54;0.00;0.00;0.00
62778;PMS7003;48821;48.796;2.396;2023-04-12T06:04:08;0.00;0.00;0.00
62778;PMS7003;48821;48.796;2.396;2023-04-12T06:05:22;1.33;0.00;0.00
62778;PMS7003;48821;48.796;2.396;2023-04-12T06:06:35;0.00;0.00;0.00
62778;PMS7003;48821;48.796;2.396;2023-04-12T06:07:48;1.50;0.00;0.00
62778;PMS7003;48821;48.796;2.396;2023-04-12T06:09:02;0.50;0.00;0.00
62778;PMS7003;48821;48.796;2.396;2023-04-12T06:10:16;0.00;0.00;0.00
62778;PMS7003;48821;48.796;2.396;2023-04-12T06:11:30;1.50;0.00;0.00
62778;PMS7003;48821;48.796;2.396;2023-04-12T06:12:45;0.00;0.00;0.00
62778;PMS7003;48821;48.796;2.396;2023-04-12T06:13:59;1.50;1.00;1.00
62778;PMS7003;48821;48.796;2.396;2023-04-12T06:15:12;0.83;0.50;0.00
62778;PMS7003;48821;48.796;2.396;2023-04-12T06:16:26;0.00;0.00;0.00
62778;PMS7003;48821;48.796;2.396;2023-04-12T06:17:39;0.50;0.50;0.50
62778;PMS7003;48821;48.796;2.396;2023-04-12T06:18:52;0.83;0.33;0.33
62778;PMS7003;48821;48.796;2.396;2023-04-12T06:20:06;1.50;0.50;0.33
62778;PMS7003;48821;48.796;2.396;2023-04-12T06:21:21;1.00;0.50;0.50
62778;PMS7003;48821;48.796;2.396;2023-04-12T06:22:35;3.17;1.50;1.17
62778;PMS7003;48821;48.796;2.396;2023-04-12T06:23:49;4.33;1.50;0.83
62778;PMS7003;48821;48.796;2.396;2023-04-12T06:25:02;1.50;0.83;0.83
62778;PMS7003;48821;48.796;2.396;2023-04-12T06:26:16;2.33;1.33;0.50
62778;PMS7003;48821;48.796;2.396;2023-04-12T06:27:29;1.17;1.00;0.83
62778;PMS7003;48821;48.796;2.396;2023-04-12T06:28:43;1.50;1.50;1.00
62778;PMS7003;48821;48.796;2.396;2023-04-12T06:29:56;2.00;2.00;2.00
62778;PMS7003;48821;48.796;2.396;2023-04-12T06:31:09;3.50;3.50;2.33
62778;PMS7003;48821;48.796;2.396;2023-04-12T06:32:22;5.83;1.83;1.33
62778;PMS7003;48821;48.796;2.396;2023-04-12T06:33:36;2.00;1.67;1.67
62778;PMS7003;48821;48.796;2.396;2023-04-12T06:34:49;3.33;3.33;2.50
62778;PMS7003;48821;48.796;2.396;2023-04-12T06:36:02;3.17;3.17;3.00
62778;PMS7003;48821;48.796;2.396;2023-04-12T06:37:16;3.67;3.00;2.50
62778;PMS7003;48821;48.796;2.396;2023-04-12T06:38:29;2.50;2.50;2.17
62778;PMS7003;48821;48.796;2.396;2023-04-12T06:39:42;2.00;2.00;1.83
62778;PMS7003;48821;48.796;2.396;2023-04-12T06:40:55;4.00;3.00;2.50
62778;PMS7003;48821;48.796;2.396;2023-04-12T06:42:08;7.17;3.00;3.00
62778;PMS7003;48821;48.796;2.396;2023-04-12T06:43:22;2.33;2.33;1.50
62778;PMS7003;48821;48.796;2.396;2023-04-12T06:44:35;2.67;2.67;2.50
62778;PMS7003;48821;48.796;2.396;2023-04-12T06:45:48;6.50;5.50;3.67
62778;PMS7003;48821;48.796;2.396;2023-04-12T06:47:01;3.33;3.33;2.67
62778;PMS7003;48821;48.796;2.396;2023-04-12T06:48:15;4.50;3.50;2.83
62778;PMS7003;48821;48.796;2.396;2023-04-12T06:49:28;5.33;3.83;3.50
62778;PMS7003;48821;48.796;2.396;2023-04-12T06:50:41;5.83;4.17;3.17
62778;PMS7003;48821;48.796;2.396;2023-04-12T06:51:55;5.00;5.00;4.00
62778;PMS7003;48821;48.796;2.396;2023-04-12T06:53:09;4.50;4.50;4.33
62778;PMS7003;48821;48.796;2.396;2023-04-12T06:54:22;4.33;4.33;3.50
62778;PMS7003;48821;48.796;2.396;2023-04-12T06:55:35;6.17;5.67;5.17
62778;PMS7003;48821;48.796;2.396;2023-04-12T06:56:49;5.83;5.50;4.50
62778;PMS7003;48821;48.796;2.396;2023-04-12T06:58:02;5.83;5.83;4.50
62778;PMS7003;48821;48.796;2.396;2023-04-12T06:59:15;5.67;5.17;4.17
62778;PMS7003;48821;48.796;2.396;2023-04-12T07:00:29;6.67;6.17;5.33
62778;PMS7003;48821;48.796;2.396;2023-04-12T07:01:42;4.33;4.17;3.50
62778;PMS7003;48821;48.796;2.396;2023-04-12T07:02:56;6.33;6.33;5.17
62778;PMS7003;48821;48.796;2.396;2023-04-12T07:04:06;6.67;5.00;4.00
62778;PMS7003;48821;48.796;2.396;2023-04-12T07:05:18;5.33;4.00;3.00
62778;PMS7003;48821;48.796;2.396;2023-04-12T07:06:31;6.17;3.50;2.67
62778;PMS7003;48821;48.796;2.396;2023-04-12T07:07:44;3.50;3.50;3.00
62778;PMS7003;48821;48.796;2.396;2023-04-12T07:08:58;3.67;2.83;2.33
62778;PMS7003;48821;48.796;2.396;2023-04-12T07:10:11;3.33;3.33;3.00
62778;PMS7003;48821;48.796;2.396;2023-04-12T07:11:24;3.83;3.50;3.00
62778;PMS7003;48821;48.796;2.396;2023-04-12T07:12:37;3.50;3.33;2.67
62778;PMS7003;48821;48.796;2.396;2023-04-12T07:13:51;2.50;2.50;1.83
62778;PMS7003;48821;48.796;2.396;2023-04-12T07:15:04;4.17;2.33;2.00
62778;PMS7003;48821;48.796;2.396;2023-04-12T07:16:17;2.83;1.83;1.50
62778;PMS7003;48821;48.796;2.396;2023-04-12T07:17:31;6.00;1.33;0.50
62778;PMS7003;48821;48.796;2.396;2023-04-12T07:18:44;4.00;2.67;2.17
62778;PMS7003;48821;48.796;2.396;2023-04-12T07:19:57;2.00;0.67;0.67
62778;PMS7003;48821;48.796;2.396;2023-04-12T07:21:10;1.33;1.33;0.67
62778;PMS7003;48821;48.796;2.396;2023-04-12T07:22:29;0.83;0.83;0.67
62778;PMS7003;48821;48.796;2.396;2023-04-12T07:23:42;3.00;1.50;1.17
62778;PMS7003;48821;48.796;2.396;2023-04-12T07:24:56;0.67;0.67;0.67